sensor_id;sensor_type;location;lat;lon;timestamp;P1;durP1;ratioP1;P2;durP2;ratioP2
30896;SDS011;64229;52.246;21.054;2023-07-31T00:00:11;1.70;;;1.10;;
30896;SDS011;64229;52.246;21.054;2023-07-31T00:02:37;2.30;;;1.60;;
30896;SDS011;64229;52.246;21.054;2023-07-31T00:05:02;1.73;;;1.20;;
30896;SDS011;64229;52.246;21.054;2023-07-31T00:07:28;1.77;;;1.20;;
30896;SDS011;64229;52.246;21.054;2023-07-31T00:09:53;1.80;;;1.30;;
30896;SDS011;64229;52.246;21.054;2023-07-31T00:12:19;2.40;;;1.50;;
30896;SDS011;64229;52.246;21.054;2023-07-31T00:14:45;3.13;;;1.70;;
30896;SDS011;64229;52.246;21.054;2023-07-31T00:17:10;2.50;;;1.50;;
30896;SDS011;64229;52.246;21.054;2023-07-31T00:19:36;3.90;;;1.27;;
30896;SDS011;64229;52.246;21.054;2023-07-31T00:22:01;2.35;;;1.67;;
30896;SDS011;64229;52.246;21.054;2023-07-31T00:24:26;3.53;;;1.25;;
30896;SDS011;64229;52.246;21.054;2023-07-31T00:26:52;4.00;;;1.50;;
30896;SDS011;64229;52.246;21.054;2023-07-31T00:29:17;2.40;;;1.50;;
30896;SDS011;64229;52.246;21.054;2023-07-31T00:31:43;3.03;;;1.48;;
30896;SDS011;64229;52.246;21.054;2023-07-31T00:34:08;2.13;;;1.47;;
30896;SDS011;64229;52.246;21.054;2023-07-31T00:36:34;3.13;;;1.45;;
30896;SDS011;64229;52.246;21.054;2023-07-31T00:38:59;2.90;;;1.70;;
30896;SDS011;64229;52.246;21.054;2023-07-31T00:41:25;1.93;;;1.23;;
30896;SDS011;64229;52.246;21.054;2023-07-31T00:43:50;3.07;;;1.60;;
30896;SDS011;64229;52.246;21.054;2023-07-31T00:46:15;4.50;;;1.60;;
30896;SDS011;64229;52.246;21.054;2023-07-31T00:48:40;3.95;;;1.75;;
30896;SDS011;64229;52.246;21.054;2023-07-31T00:51:07;2.42;;;1.50;;
30896;SDS011;64229;52.246;21.054;2023-07-31T00:53:33;2.45;;;1.60;;
30896;SDS011;64229;52.246;21.054;2023-07-31T00:55:58;2.50;;;1.55;;
30896;SDS011;64229;52.246;21.054;2023-07-31T00:58:24;2.42;;;1.65;;
30896;SDS011;64229;52.246;21.054;2023-07-31T01:00:49;2.75;;;1.60;;
30896;SDS011;64229;52.246;21.054;2023-07-31T01:03:15;5.10;;;1.98;;
30896;SDS011;64229;52.246;21.054;2023-07-31T01:11:19;10.30;;;1.85;;
30896;SDS011;64229;52.246;21.054;2023-07-31T01:13:50;3.78;;;1.98;;
30896;SDS011;64229;52.246;21.054;2023-07-31T01:16:16;4.93;;;1.85;;
30896;SDS011;64229;52.246;21.054;2023-07-31T01:18:41;3.40;;;1.73;;
30896;SDS011;64229;52.246;21.054;2023-07-31T01:21:12;3.20;;;1.80;;
30896;SDS011;64229;52.246;21.054;2023-07-31T01:26:38;2.83;;;1.77;;
30896;SDS011;64229;52.246;21.054;2023-07-31T01:29:18;4.10;;;1.70;;
30896;SDS011;64229;52.246;21.054;2023-07-31T01:31:50;3.47;;;1.80;;
30896;SDS011;64229;52.246;21.054;2023-07-31T01:34:20;4.68;;;1.95;;
30896;SDS011;64229;52.246;21.054;2023-07-31T01:36:47;3.25;;;1.65;;
30896;SDS011;64229;52.246;21.054;2023-07-31T01:39:12;3.58;;;2.10;;
30896;SDS011;64229;52.246;21.054;2023-07-31T01:41:38;3.00;;;1.85;;
30896;SDS011;64229;52.246;21.054;2023-07-31T01:44:03;5.13;;;1.70;;
30896;SDS011;64229;52.246;21.054;2023-07-31T01:46:29;3.22;;;2.03;;
30896;SDS011;64229;52.246;21.054;2023-07-31T01:48:54;4.13;;;1.83;;
30896;SDS011;64229;52.246;21.054;2023-07-31T01:51:19;2.63;;;1.87;;
30896;SDS011;64229;52.246;21.054;2023-07-31T01:53:45;3.57;;;2.10;;
30896;SDS011;64229;52.246;21.054;2023-07-31T01:56:10;3.80;;;2.30;;
30896;SDS011;64229;52.246;21.054;2023-07-31T01:58:35;2.60;;;1.77;;
30896;SDS011;64229;52.246;21.054;2023-07-31T02:01:01;3.40;;;1.80;;
30896;SDS011;64229;52.246;21.054;2023-07-31T02:03:26;4.50;;;1.80;;
30896;SDS011;64229;52.246;21.054;2023-07-31T02:05:51;3.10;;;2.00;;
30896;SDS011;64229;52.246;21.054;2023-07-31T02:08:16;3.03;;;1.97;;
30896;SDS011;64229;52.246;21.054;2023-07-31T02:10:42;3.33;;;2.17;;
30896;SDS011;64229;52.246;21.054;2023-07-31T02:13:07;4.63;;;2.30;;
30896;SDS011;64229;52.246;21.054;2023-07-31T02:15:33;3.80;;;2.05;;
30896;SDS011;64229;52.246;21.054;2023-07-31T02:17:59;3.10;;;2.03;;
30896;SDS011;64229;52.246;21.054;2023-07-31T02:20:25;4.30;;;2.13;;
30896;SDS011;64229;52.246;21.054;2023-07-31T02:22:50;4.57;;;2.20;;
30896;SDS011;64229;52.246;21.054;2023-07-31T02:25:15;5.38;;;2.10;;
30896;SDS011;64229;52.246;21.054;2023-07-31T02:27:41;3.10;;;1.80;;
30896;SDS011;64229;52.246;21.054;2023-07-31T02:30:06;3.88;;;2.00;;
30896;SDS011;64229;52.246;21.054;2023-07-31T02:32:32;4.45;;;2.13;;
30896;SDS011;64229;52.246;21.054;2023-07-31T02:34:57;3.45;;;2.00;;
30896;SDS011;64229;52.246;21.054;2023-07-31T02:37:23;4.87;;;2.37;;
30896;SDS011;64229;52.246;21.054;2023-07-31T02:39:48;3.50;;;2.33;;
30896;SDS011;64229;52.246;21.054;2023-07-31T02:42:14;8.93;;;2.75;;
30896;SDS011;64229;52.246;21.054;2023-07-31T02:44:39;4.95;;;2.33;;
30896;SDS011;64229;52.246;21.054;2023-07-31T02:47:04;4.18;;;2.40;;
30896;SDS011;64229;52.246;21.054;2023-07-31T02:49:30;3.55;;;2.30;;
30896;SDS011;64229;52.246;21.054;2023-07-31T02:51:55;4.22;;;2.13;;
30896;SDS011;64229;52.246;21.054;2023-07-31T02:54:21;5.93;;;2.47;;
30896;SDS011;64229;52.246;21.054;2023-07-31T02:56:46;3.83;;;2.17;;
30896;SDS011;64229;52.246;21.054;2023-07-31T02:59:12;4.60;;;2.30;;
30896;SDS011;64229;52.246;21.054;2023-07-31T03:01:38;4.75;;;2.40;;
30896;SDS011;64229;52.246;21.054;2023-07-31T03:04:03;4.10;;;2.53;;
30896;SDS011;64229;52.246;21.054;2023-07-31T03:06:28;4.65;;;2.55;;
30896;SDS011;64229;52.246;21.054;2023-07-31T03:08:54;5.20;;;2.67;;
30896;SDS011;64229;52.246;21.054;2023-07-31T03:11:19;6.73;;;2.50;;
30896;SDS011;64229;52.246;21.054;2023-07-31T03:13:44;5.77;;;3.00;;
30896;SDS011;64229;52.246;21.054;2023-07-31T03:16:10;3.92;;;2.38;;
30896;SDS011;64229;52.246;21.054;2023-07-31T03:18:35;5.40;;;2.60;;
30896;SDS011;64229;52.246;21.054;2023-07-31T03:21:00;5.60;;;2.60;;
30896;SDS011;64229;52.246;21.054;2023-07-31T03:23:25;5.20;;;2.50;;
30896;SDS011;64229;52.246;21.054;2023-07-31T03:25:57;4.30;;;2.58;;
30896;SDS011;64229;52.246;21.054;2023-07-31T03:28:24;7.63;;;2.63;;
30896;SDS011;64229;52.246;21.054;2023-07-31T03:30:49;7.72;;;2.97;;
30896;SDS011;64229;52.246;21.054;2023-07-31T03:33:15;4.28;;;2.60;;
30896;SDS011;64229;52.246;21.054;2023-07-31T03:35:40;5.63;;;2.77;;
30896;SDS011;64229;52.246;21.054;2023-07-31T03:38:05;4.70;;;2.20;;
30896;SDS011;64229;52.246;21.054;2023-07-31T03:40:30;4.03;;;2.50;;
30896;SDS011;64229;52.246;21.054;2023-07-31T03:42:56;5.73;;;2.40;;
30896;SDS011;64229;52.246;21.054;2023-07-31T03:45:21;4.00;;;2.70;;
30896;SDS011;64229;52.246;21.054;2023-07-31T03:47:46;5.32;;;2.60;;
30896;SDS011;64229;52.246;21.054;2023-07-31T03:50:11;4.73;;;2.87;;
30896;SDS011;64229;52.246;21.054;2023-07-31T03:52:37;7.43;;;2.37;;
30896;SDS011;64229;52.246;21.054;2023-07-31T03:55:02;4.67;;;2.70;;
30896;SDS011;64229;52.246;21.054;2023-07-31T03:57:27;4.03;;;2.50;;
30896;SDS011;64229;52.246;21.054;2023-07-31T03:59:53;5.75;;;3.00;;
30896;SDS011;64229;52.246;21.054;2023-07-31T04:02:18;5.83;;;2.60;;
30896;SDS011;64229;52.246;21.054;2023-07-31T04:04:44;3.72;;;2.47;;
30896;SDS011;64229;52.246;21.054;2023-07-31T04:07:09;5.73;;;2.50;;
30896;SDS011;64229;52.246;21.054;2023-07-31T04:09:34;4.07;;;2.50;;
30896;SDS011;64229;52.246;21.054;2023-07-31T04:11:59;5.73;;;2.40;;
30896;SDS011;64229;52.246;21.054;2023-07-31T04:14:25;5.40;;;2.93;;
30896;SDS011;64229;52.246;21.054;2023-07-31T04:16:50;6.32;;;3.40;;
30896;SDS011;64229;52.246;21.054;2023-07-31T04:19:15;8.45;;;3.05;;
30896;SDS011;64229;52.246;21.054;2023-07-31T04:21:41;4.40;;;2.50;;
30896;SDS011;64229;52.246;21.054;2023-07-31T04:24:07;4.43;;;2.55;;
30896;SDS011;64229;52.246;21.054;2023-07-31T04:26:32;4.47;;;2.60;;
30896;SDS011;64229;52.246;21.054;2023-07-31T04:28:57;5.60;;;2.83;;
30896;SDS011;64229;52.246;21.054;2023-07-31T04:31:23;4.27;;;2.40;;
30896;SDS011;64229;52.246;21.054;2023-07-31T04:33:48;6.77;;;2.47;;
30896;SDS011;64229;52.246;21.054;2023-07-31T04:36:13;6.73;;;2.67;;
30896;SDS011;64229;52.246;21.054;2023-07-31T04:38:39;6.20;;;3.17;;
30896;SDS011;64229;52.246;21.054;2023-07-31T04:41:06;4.10;;;2.60;;
30896;SDS011;64229;52.246;21.054;2023-07-31T04:43:31;5.13;;;2.15;;
30896;SDS011;64229;52.246;21.054;2023-07-31T04:45:56;10.23;;;2.60;;
30896;SDS011;64229;52.246;21.054;2023-07-31T04:48:22;3.47;;;2.35;;
30896;SDS011;64229;52.246;21.054;2023-07-31T04:50:48;5.18;;;2.60;;
30896;SDS011;64229;52.246;21.054;2023-07-31T04:53:13;5.20;;;2.33;;
30896;SDS011;64229;52.246;21.054;2023-07-31T04:55:38;5.17;;;2.17;;
30896;SDS011;64229;52.246;21.054;2023-07-31T04:58:04;7.53;;;2.53;;
30896;SDS011;64229;52.246;21.054;2023-07-31T05:00:29;6.47;;;2.70;;
30896;SDS011;64229;52.246;21.054;2023-07-31T05:02:55;5.38;;;2.17;;
30896;SDS011;64229;52.246;21.054;2023-07-31T05:05:20;6.63;;;2.53;;
30896;SDS011;64229;52.246;21.054;2023-07-31T05:07:45;6.43;;;2.30;;
30896;SDS011;64229;52.246;21.054;2023-07-31T05:10:11;4.27;;;2.23;;
30896;SDS011;64229;52.246;21.054;2023-07-31T05:12:36;3.63;;;2.10;;
30896;SDS011;64229;52.246;21.054;2023-07-31T05:15:01;4.93;;;2.17;;
30896;SDS011;64229;52.246;21.054;2023-07-31T05:17:27;6.22;;;2.30;;
30896;SDS011;64229;52.246;21.054;2023-07-31T05:19:52;4.07;;;2.42;;
30896;SDS011;64229;52.246;21.054;2023-07-31T05:22:17;4.70;;;2.20;;
30896;SDS011;64229;52.246;21.054;2023-07-31T05:24:42;4.63;;;2.23;;
30896;SDS011;64229;52.246;21.054;2023-07-31T05:27:08;8.80;;;2.30;;
30896;SDS011;64229;52.246;21.054;2023-07-31T05:29:34;6.97;;;2.60;;
30896;SDS011;64229;52.246;21.054;2023-07-31T05:32:00;6.60;;;2.40;;
30896;SDS011;64229;52.246;21.054;2023-07-31T05:34:25;11.50;;;2.43;;
30896;SDS011;64229;52.246;21.054;2023-07-31T05:36:50;3.85;;;2.30;;
30896;SDS011;64229;52.246;21.054;2023-07-31T05:39:15;7.07;;;2.30;;
30896;SDS011;64229;52.246;21.054;2023-07-31T05:41:41;6.80;;;2.70;;
30896;SDS011;64229;52.246;21.054;2023-07-31T05:44:06;4.97;;;2.73;;
30896;SDS011;64229;52.246;21.054;2023-07-31T05:46:31;4.82;;;2.95;;
30896;SDS011;64229;52.246;21.054;2023-07-31T05:48:57;4.20;;;2.22;;
30896;SDS011;64229;52.246;21.054;2023-07-31T05:51:22;6.33;;;2.10;;
30896;SDS011;64229;52.246;21.054;2023-07-31T05:53:47;5.13;;;2.33;;
30896;SDS011;64229;52.246;21.054;2023-07-31T05:56:12;5.55;;;2.50;;
30896;SDS011;64229;52.246;21.054;2023-07-31T05:58:38;4.90;;;2.60;;
30896;SDS011;64229;52.246;21.054;2023-07-31T06:01:03;6.17;;;2.40;;
30896;SDS011;64229;52.246;21.054;2023-07-31T06:03:28;5.22;;;2.50;;
30896;SDS011;64229;52.246;21.054;2023-07-31T06:05:53;4.85;;;2.10;;
30896;SDS011;64229;52.246;21.054;2023-07-31T06:08:19;5.60;;;2.77;;
30896;SDS011;64229;52.246;21.054;2023-07-31T06:10:44;7.50;;;2.30;;
30896;SDS011;64229;52.246;21.054;2023-07-31T06:13:09;8.10;;;2.53;;
30896;SDS011;64229;52.246;21.054;2023-07-31T06:15:35;3.17;;;2.15;;
30896;SDS011;64229;52.246;21.054;2023-07-31T06:18:00;6.60;;;2.43;;
30896;SDS011;64229;52.246;21.054;2023-07-31T06:20:27;5.28;;;2.40;;
30896;SDS011;64229;52.246;21.054;2023-07-31T06:22:52;6.05;;;2.55;;
30896;SDS011;64229;52.246;21.054;2023-07-31T06:25:17;7.87;;;2.40;;
30896;SDS011;64229;52.246;21.054;2023-07-31T06:27:43;8.48;;;2.35;;
30896;SDS011;64229;52.246;21.054;2023-07-31T06:30:08;12.02;;;4.75;;
30896;SDS011;64229;52.246;21.054;2023-07-31T06:32:34;9.05;;;2.13;;
30896;SDS011;64229;52.246;21.054;2023-07-31T06:34:59;6.73;;;2.43;;
30896;SDS011;64229;52.246;21.054;2023-07-31T06:37:24;9.40;;;2.50;;
30896;SDS011;64229;52.246;21.054;2023-07-31T06:39:49;3.43;;;2.03;;
30896;SDS011;64229;52.246;21.054;2023-07-31T06:42:15;3.65;;;2.70;;
30896;SDS011;64229;52.246;21.054;2023-07-31T06:44:40;6.20;;;2.60;;
30896;SDS011;64229;52.246;21.054;2023-07-31T06:47:05;5.53;;;2.13;;
30896;SDS011;64229;52.246;21.054;2023-07-31T06:49:30;6.77;;;2.77;;
30896;SDS011;64229;52.246;21.054;2023-07-31T06:51:56;8.50;;;2.60;;
30896;SDS011;64229;52.246;21.054;2023-07-31T06:54:21;7.78;;;2.28;;
30896;SDS011;64229;52.246;21.054;2023-07-31T06:56:46;5.65;;;2.55;;
30896;SDS011;64229;52.246;21.054;2023-07-31T06:59:12;9.57;;;2.80;;
30896;SDS011;64229;52.246;21.054;2023-07-31T07:01:37;7.57;;;3.10;;
30896;SDS011;64229;52.246;21.054;2023-07-31T07:04:02;7.85;;;2.55;;
30896;SDS011;64229;52.246;21.054;2023-07-31T07:06:28;6.28;;;2.33;;
30896;SDS011;64229;52.246;21.054;2023-07-31T07:08:53;5.30;;;2.40;;
30896;SDS011;64229;52.246;21.054;2023-07-31T07:11:18;6.43;;;2.93;;
30896;SDS011;64229;52.246;21.054;2023-07-31T07:13:43;9.23;;;3.03;;
30896;SDS011;64229;52.246;21.054;2023-07-31T07:16:09;7.27;;;3.00;;
30896;SDS011;64229;52.246;21.054;2023-07-31T07:18:35;13.98;;;3.53;;
30896;SDS011;64229;52.246;21.054;2023-07-31T07:21:00;4.03;;;2.35;;
30896;SDS011;64229;52.246;21.054;2023-07-31T07:23:27;4.55;;;2.85;;
30896;SDS011;64229;52.246;21.054;2023-07-31T07:25:52;10.70;;;3.10;;
30896;SDS011;64229;52.246;21.054;2023-07-31T07:28:17;8.25;;;3.65;;
30896;SDS011;64229;52.246;21.054;2023-07-31T07:30:43;4.30;;;2.60;;
30896;SDS011;64229;52.246;21.054;2023-07-31T07:33:08;7.73;;;2.67;;
30896;SDS011;64229;52.246;21.054;2023-07-31T07:35:33;5.45;;;2.40;;
30896;SDS011;64229;52.246;21.054;2023-07-31T07:37:59;7.97;;;2.97;;
30896;SDS011;64229;52.246;21.054;2023-07-31T07:40:25;7.22;;;3.22;;
30896;SDS011;64229;52.246;21.054;2023-07-31T07:42:50;8.77;;;2.50;;
30896;SDS011;64229;52.246;21.054;2023-07-31T07:45:16;6.28;;;2.90;;
30896;SDS011;64229;52.246;21.054;2023-07-31T07:47:41;5.20;;;2.30;;
30896;SDS011;64229;52.246;21.054;2023-07-31T07:50:07;8.60;;;2.70;;
30896;SDS011;64229;52.246;21.054;2023-07-31T07:52:33;6.10;;;2.17;;
30896;SDS011;64229;52.246;21.054;2023-07-31T07:54:58;7.60;;;2.23;;
30896;SDS011;64229;52.246;21.054;2023-07-31T07:57:23;7.85;;;2.33;;
30896;SDS011;64229;52.246;21.054;2023-07-31T07:59:48;8.33;;;2.10;;
30896;SDS011;64229;52.246;21.054;2023-07-31T08:02:14;5.20;;;2.27;;
30896;SDS011;64229;52.246;21.054;2023-07-31T08:04:39;4.53;;;2.13;;
30896;SDS011;64229;52.246;21.054;2023-07-31T08:07:04;4.27;;;2.30;;
30896;SDS011;64229;52.246;21.054;2023-07-31T08:09:30;4.93;;;2.00;;
30896;SDS011;64229;52.246;21.054;2023-07-31T08:11:55;5.47;;;2.20;;
30896;SDS011;64229;52.246;21.054;2023-07-31T08:14:22;4.38;;;2.13;;
30896;SDS011;64229;52.246;21.054;2023-07-31T08:16:48;6.07;;;2.13;;
30896;SDS011;64229;52.246;21.054;2023-07-31T08:19:13;4.50;;;2.10;;
30896;SDS011;64229;52.246;21.054;2023-07-31T08:21:38;3.50;;;1.70;;
30896;SDS011;64229;52.246;21.054;2023-07-31T08:24:03;6.83;;;1.80;;
30896;SDS011;64229;52.246;21.054;2023-07-31T08:26:29;4.53;;;1.90;;
30896;SDS011;64229;52.246;21.054;2023-07-31T08:28:54;12.18;;;1.75;;
30896;SDS011;64229;52.246;21.054;2023-07-31T08:31:19;5.35;;;1.80;;
30896;SDS011;64229;52.246;21.054;2023-07-31T08:33:45;3.73;;;1.80;;
30896;SDS011;64229;52.246;21.054;2023-07-31T08:36:10;3.20;;;1.80;;
30896;SDS011;64229;52.246;21.054;2023-07-31T08:38:35;4.15;;;1.75;;
30896;SDS011;64229;52.246;21.054;2023-07-31T08:41:02;3.83;;;1.50;;
30896;SDS011;64229;52.246;21.054;2023-07-31T08:43:28;7.10;;;1.95;;
30896;SDS011;64229;52.246;21.054;2023-07-31T08:45:55;6.15;;;1.50;;
30896;SDS011;64229;52.246;21.054;2023-07-31T08:48:21;3.95;;;1.83;;
30896;SDS011;64229;52.246;21.054;2023-07-31T08:50:48;6.35;;;2.03;;
30896;SDS011;64229;52.246;21.054;2023-07-31T08:53:14;4.32;;;1.60;;
30896;SDS011;64229;52.246;21.054;2023-07-31T08:55:39;2.55;;;1.42;;
30896;SDS011;64229;52.246;21.054;2023-07-31T08:58:05;3.50;;;1.63;;
30896;SDS011;64229;52.246;21.054;2023-07-31T09:00:31;4.53;;;2.20;;
30896;SDS011;64229;52.246;21.054;2023-07-31T09:02:58;8.48;;;1.92;;
30896;SDS011;64229;52.246;21.054;2023-07-31T09:05:28;7.25;;;1.83;;
30896;SDS011;64229;52.246;21.054;2023-07-31T09:07:54;4.05;;;1.63;;
30896;SDS011;64229;52.246;21.054;2023-07-31T09:10:21;6.72;;;1.65;;
30896;SDS011;64229;52.246;21.054;2023-07-31T09:12:46;2.92;;;1.50;;
30896;SDS011;64229;52.246;21.054;2023-07-31T09:15:13;4.82;;;1.70;;
30896;SDS011;64229;52.246;21.054;2023-07-31T09:17:39;4.07;;;1.70;;
30896;SDS011;64229;52.246;21.054;2023-07-31T09:20:20;6.68;;;1.30;;
30896;SDS011;64229;52.246;21.054;2023-07-31T09:22:46;2.75;;;1.27;;
30896;SDS011;64229;52.246;21.054;2023-07-31T09:25:14;5.50;;;1.30;;
30896;SDS011;64229;52.246;21.054;2023-07-31T09:27:50;4.53;;;1.95;;
30896;SDS011;64229;52.246;21.054;2023-07-31T09:30:16;4.00;;;1.85;;
30896;SDS011;64229;52.246;21.054;2023-07-31T09:32:45;4.22;;;1.33;;
30896;SDS011;64229;52.246;21.054;2023-07-31T09:35:20;7.63;;;1.63;;
30896;SDS011;64229;52.246;21.054;2023-07-31T09:37:52;4.95;;;1.88;;
30896;SDS011;64229;52.246;21.054;2023-07-31T09:40:31;11.23;;;1.98;;
30896;SDS011;64229;52.246;21.054;2023-07-31T09:42:59;6.03;;;1.45;;
30896;SDS011;64229;52.246;21.054;2023-07-31T09:45:26;6.90;;;1.60;;
30896;SDS011;64229;52.246;21.054;2023-07-31T09:47:53;7.32;;;1.50;;
30896;SDS011;64229;52.246;21.054;2023-07-31T09:50:20;5.75;;;1.60;;
30896;SDS011;64229;52.246;21.054;2023-07-31T09:52:47;6.93;;;1.65;;
30896;SDS011;64229;52.246;21.054;2023-07-31T09:55:12;4.38;;;1.20;;
30896;SDS011;64229;52.246;21.054;2023-07-31T09:57:41;3.23;;;1.33;;
30896;SDS011;64229;52.246;21.054;2023-07-31T10:00:10;6.95;;;1.27;;
30896;SDS011;64229;52.246;21.054;2023-07-31T10:02:36;3.28;;;1.20;;
30896;SDS011;64229;52.246;21.054;2023-07-31T10:05:03;3.92;;;1.40;;
30896;SDS011;64229;52.246;21.054;2023-07-31T10:07:30;2.47;;;1.25;;
30896;SDS011;64229;52.246;21.054;2023-07-31T10:09:57;8.15;;;1.60;;
30896;SDS011;64229;52.246;21.054;2023-07-31T10:12:25;4.18;;;1.42;;
30896;SDS011;64229;52.246;21.054;2023-07-31T10:14:55;2.53;;;1.20;;
30896;SDS011;64229;52.246;21.054;2023-07-31T10:17:21;3.10;;;1.40;;
30896;SDS011;64229;52.246;21.054;2023-07-31T10:19:48;4.93;;;1.23;;
30896;SDS011;64229;52.246;21.054;2023-07-31T10:22:14;2.92;;;1.00;;
30896;SDS011;64229;52.246;21.054;2023-07-31T10:24:39;7.60;;;1.48;;
30896;SDS011;64229;52.246;21.054;2023-07-31T10:27:10;1.52;;;0.93;;
30896;SDS011;64229;52.246;21.054;2023-07-31T10:29:36;2.70;;;1.20;;
30896;SDS011;64229;52.246;21.054;2023-07-31T10:32:03;5.65;;;1.60;;
30896;SDS011;64229;52.246;21.054;2023-07-31T10:34:32;3.85;;;1.27;;
30896;SDS011;64229;52.246;21.054;2023-07-31T10:39:57;6.53;;;1.20;;
30896;SDS011;64229;52.246;21.054;2023-07-31T10:42:37;4.38;;;1.40;;
30896;SDS011;64229;52.246;21.054;2023-07-31T10:45:07;7.35;;;1.63;;
30896;SDS011;64229;52.246;21.054;2023-07-31T10:47:44;5.47;;;1.50;;
30896;SDS011;64229;52.246;21.054;2023-07-31T10:53:05;3.28;;;1.27;;
30896;SDS011;64229;52.246;21.054;2023-07-31T10:55:39;2.67;;;1.20;;
30896;SDS011;64229;52.246;21.054;2023-07-31T11:00:42;2.60;;;1.00;;
30896;SDS011;64229;52.246;21.054;2023-07-31T11:03:17;2.85;;;0.90;;
30896;SDS011;64229;52.246;21.054;2023-07-31T11:08:23;5.82;;;1.20;;
30896;SDS011;64229;52.246;21.054;2023-07-31T11:13:30;4.63;;;1.20;;
30896;SDS011;64229;52.246;21.054;2023-07-31T11:15:56;5.90;;;1.00;;
30896;SDS011;64229;52.246;21.054;2023-07-31T11:18:22;4.78;;;1.05;;
30896;SDS011;64229;52.246;21.054;2023-07-31T11:20:47;3.20;;;0.93;;
30896;SDS011;64229;52.246;21.054;2023-07-31T11:23:15;4.80;;;1.05;;
30896;SDS011;64229;52.246;21.054;2023-07-31T11:25:41;5.47;;;1.33;;
30896;SDS011;64229;52.246;21.054;2023-07-31T11:28:08;3.10;;;0.73;;
30896;SDS011;64229;52.246;21.054;2023-07-31T11:30:34;3.22;;;0.90;;
30896;SDS011;64229;52.246;21.054;2023-07-31T11:33:01;4.03;;;1.55;;
30896;SDS011;64229;52.246;21.054;2023-07-31T11:35:28;3.38;;;1.10;;
30896;SDS011;64229;52.246;21.054;2023-07-31T11:37:54;4.07;;;0.98;;
30896;SDS011;64229;52.246;21.054;2023-07-31T11:40:19;10.45;;;2.75;;
30896;SDS011;64229;52.246;21.054;2023-07-31T11:42:45;3.33;;;1.05;;
30896;SDS011;64229;52.246;21.054;2023-07-31T11:45:10;6.30;;;0.93;;
30896;SDS011;64229;52.246;21.054;2023-07-31T11:47:36;4.80;;;1.15;;
30896;SDS011;64229;52.246;21.054;2023-07-31T11:50:03;2.45;;;1.02;;
30896;SDS011;64229;52.246;21.054;2023-07-31T11:52:32;6.68;;;1.25;;
30896;SDS011;64229;52.246;21.054;2023-07-31T11:55:02;2.38;;;1.08;;
30896;SDS011;64229;52.246;21.054;2023-07-31T11:57:28;5.10;;;1.05;;
30896;SDS011;64229;52.246;21.054;2023-07-31T11:59:54;4.03;;;0.90;;
30896;SDS011;64229;52.246;21.054;2023-07-31T12:02:20;2.13;;;0.98;;
30896;SDS011;64229;52.246;21.054;2023-07-31T12:04:46;3.85;;;1.10;;
30896;SDS011;64229;52.246;21.054;2023-07-31T12:07:13;2.50;;;1.02;;
30896;SDS011;64229;52.246;21.054;2023-07-31T12:09:38;3.23;;;1.10;;
30896;SDS011;64229;52.246;21.054;2023-07-31T12:12:07;11.50;;;1.70;;
30896;SDS011;64229;52.246;21.054;2023-07-31T12:14:34;4.65;;;1.52;;
30896;SDS011;64229;52.246;21.054;2023-07-31T12:17:00;7.63;;;2.03;;
30896;SDS011;64229;52.246;21.054;2023-07-31T12:19:32;4.00;;;1.60;;
30896;SDS011;64229;52.246;21.054;2023-07-31T12:21:58;2.08;;;1.20;;
30896;SDS011;64229;52.246;21.054;2023-07-31T12:24:25;4.38;;;1.02;;
30896;SDS011;64229;52.246;21.054;2023-07-31T12:26:51;3.30;;;1.00;;
30896;SDS011;64229;52.246;21.054;2023-07-31T12:29:17;4.47;;;1.17;;
30896;SDS011;64229;52.246;21.054;2023-07-31T12:31:43;5.93;;;1.17;;
30896;SDS011;64229;52.246;21.054;2023-07-31T12:34:18;3.85;;;1.42;;
30896;SDS011;64229;52.246;21.054;2023-07-31T12:36:46;3.35;;;1.33;;
30896;SDS011;64229;52.246;21.054;2023-07-31T12:39:13;4.82;;;1.10;;
30896;SDS011;64229;52.246;21.054;2023-07-31T12:41:39;4.32;;;1.20;;
30896;SDS011;64229;52.246;21.054;2023-07-31T12:44:04;5.63;;;1.75;;
30896;SDS011;64229;52.246;21.054;2023-07-31T12:46:29;4.43;;;1.27;;
30896;SDS011;64229;52.246;21.054;2023-07-31T12:48:55;3.45;;;1.27;;
30896;SDS011;64229;52.246;21.054;2023-07-31T12:51:20;6.38;;;1.50;;
30896;SDS011;64229;52.246;21.054;2023-07-31T12:53:46;4.18;;;1.35;;
30896;SDS011;64229;52.246;21.054;2023-07-31T12:56:11;3.37;;;1.00;;
30896;SDS011;64229;52.246;21.054;2023-07-31T12:58:36;2.30;;;1.23;;
30896;SDS011;64229;52.246;21.054;2023-07-31T13:01:02;2.53;;;1.10;;
30896;SDS011;64229;52.246;21.054;2023-07-31T13:03:27;7.05;;;1.65;;
30896;SDS011;64229;52.246;21.054;2023-07-31T13:05:52;3.73;;;1.30;;
30896;SDS011;64229;52.246;21.054;2023-07-31T13:08:18;2.65;;;1.30;;
30896;SDS011;64229;52.246;21.054;2023-07-31T13:10:43;2.17;;;1.30;;
30896;SDS011;64229;52.246;21.054;2023-07-31T13:13:09;5.72;;;1.85;;
30896;SDS011;64229;52.246;21.054;2023-07-31T13:15:35;3.45;;;1.48;;
30896;SDS011;64229;52.246;21.054;2023-07-31T13:18:00;2.80;;;1.23;;
30896;SDS011;64229;52.246;21.054;2023-07-31T13:20:25;4.77;;;1.57;;
30896;SDS011;64229;52.246;21.054;2023-07-31T13:22:51;2.75;;;0.95;;
30896;SDS011;64229;52.246;21.054;2023-07-31T13:25:16;3.70;;;1.00;;
30896;SDS011;64229;52.246;21.054;2023-07-31T13:27:41;3.72;;;1.00;;
30896;SDS011;64229;52.246;21.054;2023-07-31T13:30:07;3.03;;;1.00;;
30896;SDS011;64229;52.246;21.054;2023-07-31T13:32:32;3.60;;;1.10;;
30896;SDS011;64229;52.246;21.054;2023-07-31T13:34:58;5.93;;;0.95;;
30896;SDS011;64229;52.246;21.054;2023-07-31T13:37:23;5.10;;;1.23;;
30896;SDS011;64229;52.246;21.054;2023-07-31T13:39:48;3.73;;;1.20;;
30896;SDS011;64229;52.246;21.054;2023-07-31T13:42:13;4.23;;;1.00;;
30896;SDS011;64229;52.246;21.054;2023-07-31T13:44:39;4.93;;;1.30;;
30896;SDS011;64229;52.246;21.054;2023-07-31T13:47:05;4.53;;;1.00;;
30896;SDS011;64229;52.246;21.054;2023-07-31T13:49:30;4.97;;;0.93;;
30896;SDS011;64229;52.246;21.054;2023-07-31T13:51:56;5.40;;;0.95;;
30896;SDS011;64229;52.246;21.054;2023-07-31T13:54:22;3.05;;;0.82;;
30896;SDS011;64229;52.246;21.054;2023-07-31T13:56:48;7.25;;;1.27;;
30896;SDS011;64229;52.246;21.054;2023-07-31T13:59:14;7.05;;;1.30;;
30896;SDS011;64229;52.246;21.054;2023-07-31T14:01:41;7.45;;;1.35;;
30896;SDS011;64229;52.246;21.054;2023-07-31T14:04:06;3.10;;;1.25;;
30896;SDS011;64229;52.246;21.054;2023-07-31T14:06:31;6.47;;;1.60;;
30896;SDS011;64229;52.246;21.054;2023-07-31T14:08:57;3.03;;;1.10;;
30896;SDS011;64229;52.246;21.054;2023-07-31T14:11:22;5.13;;;1.10;;
30896;SDS011;64229;52.246;21.054;2023-07-31T14:13:47;3.42;;;1.00;;
30896;SDS011;64229;52.246;21.054;2023-07-31T14:16:13;2.08;;;1.00;;
30896;SDS011;64229;52.246;21.054;2023-07-31T14:18:38;3.70;;;1.27;;
30896;SDS011;64229;52.246;21.054;2023-07-31T14:21:03;4.47;;;1.43;;
30896;SDS011;64229;52.246;21.054;2023-07-31T14:23:29;2.25;;;1.13;;
30896;SDS011;64229;52.246;21.054;2023-07-31T14:25:54;4.30;;;1.10;;
30896;SDS011;64229;52.246;21.054;2023-07-31T14:28:19;5.65;;;1.60;;
30896;SDS011;64229;52.246;21.054;2023-07-31T14:30:45;3.10;;;1.23;;
30896;SDS011;64229;52.246;21.054;2023-07-31T14:33:10;6.30;;;1.40;;
30896;SDS011;64229;52.246;21.054;2023-07-31T14:35:35;7.40;;;1.63;;
30896;SDS011;64229;52.246;21.054;2023-07-31T14:38:01;8.80;;;1.47;;
30896;SDS011;64229;52.246;21.054;2023-07-31T14:40:26;3.53;;;1.30;;
30896;SDS011;64229;52.246;21.054;2023-07-31T14:42:51;4.20;;;1.10;;
30896;SDS011;64229;52.246;21.054;2023-07-31T14:45:16;5.07;;;1.43;;
30896;SDS011;64229;52.246;21.054;2023-07-31T14:47:42;6.05;;;1.60;;